Reese River Valley, Nevada Weather observations

Data are for 10 minute period ending at time listed.
 Day   Time   Solar   Ave.   Ave.  Ave.  Vector  Max.   Baro.   Total    
  of    of     Rad.   Air    Rel.  Wind   Wind   Wind  Press.  Precip.   
Year   Day            Temp.  Hum.  Speed  Dir.   Gust                    
2016   (PST)  Kw/m2    F      %     mph   deg.    mph    mb.     in.     
-------------------------------------------------------------------------
 338    6:30   0.00   10.7    82    5.0   215     7.6   821.1    0.00 
 338    6:40   0.00   11.2    83    5.0   223     7.1   821.1    0.00 
 338    6:50   0.00   12.1    82    5.8   224     7.4   821.1    0.00 
 338    7:00   0.01   12.1    81    7.0   235     8.9   821.2    0.00 
 338    7:10   0.01   11.7    80    6.4   229     8.6   821.1    0.00 
 338    7:20   0.01   11.2    80    4.4   210     6.9   821.0    0.00 
 338    7:30   0.02   11.1    81    4.6   218     6.1   821.0    0.00 
 338    7:40   0.03   11.9    80    5.8   223     7.9   821.0    0.00 
 338    7:50   0.12   13.7    79    6.0   236     8.0   821.2    0.00 
 338    8:00   0.14   16.1    76    5.5   236     7.7   821.3    0.00 
 338    8:10   0.17   18.7    72    5.5   242     7.8   821.4    0.00 
 338    8:20   0.20   19.7    69    6.5   252     9.3   821.4    0.00 
 338    8:30   0.22   20.9    66    6.4   249     9.3   821.4    0.00 
 338    8:40   0.25   22.5    63    6.3   243     9.3   821.2    0.00 
 338    8:50   0.27   24.2    59    8.9   241    12.1   821.2    0.00 
 338    9:00   0.30   26.0    55    9.1   232    12.0   821.2    0.00 
 338    9:10   0.32   27.9    48    7.7   220    11.6   821.3    0.00 
 338    9:20   0.35   30.1    42    7.0   217     9.0   821.4    0.00 
 338    9:30   0.37   31.9    39    6.1   221     8.6   821.2    0.00 
 338    9:40   0.39   33.2    34    5.9   228     8.6   821.2    0.00 
 338    9:50   0.41   34.2    31    6.0   230     8.6   821.2    0.00 
 338   10:00   0.43   35.2    28    5.5   226     8.4   821.2    0.00 
 338   10:10   0.45   36.4    27    3.7   206     7.5   821.2    0.00 
 338   10:20   0.47   38.1    24    2.2   214     5.4   821.0    0.00 
 338   10:30   0.49   39.2    21    2.4   265     5.5   820.9    0.00 
 338   10:40   0.50   37.9    26    4.3   324     8.9   820.8    0.00 
 338   10:50   0.51   36.1    36    6.1     4     8.8   820.7    0.00 
 338   11:00   0.51   36.0    36    5.4    15     7.3   820.7    0.00 
 338   11:10   0.52   36.3    35    4.6    37     7.1   820.6    0.00 
 338   11:20   0.53   36.4    34    4.1    25     6.5   820.5    0.00 
 338   11:30   0.53   37.0    32    4.1    34     6.9   820.5    0.00 
 338   11:40   0.53   37.5    32    4.9    33     8.1   820.5    0.00 
 338   11:50   0.53   38.0    31    3.8    13     6.7   820.4    0.00 
 338   12:00   0.53   38.5    31    3.6    21     6.4   820.3    0.00 
 338   12:10   0.53   38.6    32    4.3   358     6.7   820.1    0.00 
 338   12:20   0.52   39.0    32    3.6     9     6.3   820.0    0.00 
 338   12:30   0.52   39.6    31    2.7     9     4.9   819.7    0.00 
 338   12:40   0.51   40.3    30    2.1    42     5.8   819.6    0.00 
 338   12:50   0.50   41.1    30    2.1   359     4.7   819.7    0.00 
 338   13:00   0.49   41.5    30    2.3    17     4.5   819.6    0.00 
 338   13:10   0.47   42.0    30    2.5     8     4.0   819.6    0.00 
 338   13:20   0.46   42.5    30    1.8   341     4.0   819.6    0.00 
 338   13:30   0.44   43.2    30    2.5    30     5.2   819.5    0.00 
 338   13:40   0.42   43.7    30    3.7    20     5.8   819.4    0.00 
 338   13:50   0.40   43.9    31    4.6    16     6.9   819.4    0.00 
 338   14:00   0.38   44.0    32    4.6     7     6.6   819.4    0.00 
 338   14:10   0.35   44.3    32    4.8    17     7.0   819.5    0.00 
 338   14:20   0.33   44.2    32    4.2   358     6.1   819.6    0.00 
 338   14:30   0.31   44.7    30    4.1     8     6.2   819.5    0.00 
 338   14:40   0.28   44.6    30    3.9    18     6.1   819.5    0.00 
 338   14:50   0.25   45.0    30    3.5    22     5.5   819.4    0.00 
 338   15:00   0.23   44.8    29    3.0     4     4.8   819.4    0.00 
 338   15:10   0.20   45.0    29    3.0   354     4.5   819.3    0.00 
 338   15:20   0.17   44.8    30    3.4    18     4.7   819.3    0.00 
 338   15:30   0.15   44.2    31    3.7    15     5.0   819.4    0.00 
 338   15:40   0.12   43.3    33    4.1     5     5.4   819.5    0.00 
 338   15:50   0.10   42.2    35    3.9     3     5.0   819.6    0.00 
 338   16:00   0.07   41.3    37    3.1    10     4.9   819.6    0.00 
 338   16:10   0.03   39.9    39    2.8    17     3.4   819.6    0.00 
 338   16:20   0.01   38.1    43    2.0    31     2.6   819.6    0.00 
 338   16:30   0.01   35.5    47    1.9    62     2.8   819.7    0.00 
 338   16:40   0.00   31.0    57    4.4   123     5.8   819.7    0.00 
 338   16:50   0.00   27.2    68    5.2   130     5.6   819.7    0.00 
 338   17:00   0.00   27.4    69    4.7   149     5.6   819.7    0.00 
 338   17:10   0.00   26.7    69    4.4   173     5.4   819.6    0.00 
 338   17:20   0.00   24.7    72    5.7   206     7.6   819.7    0.00 
 338   17:30   0.00   26.8    68    6.4   172     8.8   819.7    0.00 
 338   17:40   0.00   24.8    72    5.1   153     6.2   819.8    0.00 
 338   17:50   0.00   24.2    74    5.2   177     6.7   819.9    0.00 
 338   18:00   0.00   23.4    75    4.5   195     6.7   820.0    0.00 
 338   18:10   0.00   22.9    75    5.5   223     6.4   820.1    0.00 
 338   18:20   0.00   22.5    74    5.1   211     6.6   820.1    0.00 
 338   18:30   0.00   21.6    76    5.4   210     6.5   820.1    0.00 
 338   18:40   0.00   21.7    76    4.7   203     6.1   820.1    0.00 
 338   18:50   0.00   21.1    75    5.5   218     7.7   820.1    0.00 
 338   19:00   0.00   20.2    78    5.5   214     7.2   820.1    0.00 
 338   19:10   0.00   20.8    80    5.6   203     7.6   820.2    0.00 
 338   19:20   0.00   20.0    81    5.6   208     6.9   820.2    0.00 
 338   19:30   0.00   21.0    83    5.2   195     6.6   820.2    0.00 
 338   19:40   0.00   21.7    82    6.0   197     7.2   820.2    0.00 
 338   19:50   0.00   21.9    79    6.0   209     6.9   820.2    0.00 
 338   20:00   0.00   20.2    81    5.4   205     6.5   820.2    0.00 
 338   20:10   0.00   19.3    84    6.0   217     7.2   820.2    0.00 
 338   20:20   0.00   19.2    84    5.2   210     6.3   820.2    0.00 
 338   20:30   0.00   19.1    84    5.8   206     7.5   820.0    0.00 
 338   20:40   0.00   20.7    82    7.6   219     9.5   819.9    0.00 
 338   20:50   0.00   21.4    78    6.3   208     9.3   819.9    0.00 
 338   21:00   0.00   21.6    77    6.7   204    10.1   819.9    0.00 
 338   21:10   0.00   22.1    74    7.2   219     9.0   820.0    0.00 
 338   21:20   0.00   19.3    80    7.5   226     9.8   820.2    0.00 
 338   21:30   0.00   18.5    82    6.7   224     8.1   820.2    0.00 
 338   21:40   0.00   19.0    83    7.3   236     9.6   820.2    0.00 
 338   21:50   0.00   19.0    82    8.3   234    10.4   820.2    0.00 
 338   22:00   0.00   19.1    81    8.4   234    10.5   820.2    0.00 
 338   22:10   0.00   19.6    80    8.3   223    10.1   820.2    0.00 
 338   22:20   0.00   21.5    75    7.4   222    10.1   820.2    0.00 
 338   22:30   0.00   20.1    77    8.4   230    10.3   820.2    0.00 
 338   22:40   0.00   18.6    80    7.5   226    10.1   820.2    0.00 
 338   22:50   0.00   19.5    81    6.5   215     8.8   820.2    0.00 
 338   23:00   0.00   21.2    76    5.4   221     8.8   820.1    0.00 
 338   23:10   0.00   19.6    78    7.6   230    11.1   820.0    0.00 
 338   23:20   0.00   18.7    80    7.9   230    11.1   819.9    0.00 
 338   23:30   0.00   18.5    80    9.9   234    13.2   819.8    0.00 
 338   23:40   0.00   18.5    79    9.9   234    12.7   819.7    0.00 
 338   23:50   0.00   18.7    79    8.5   228    10.7   819.7    0.00 
 339    0:00   0.00   19.7    77    9.3   227    11.6   819.5    0.00 
 339    0:10   0.00   20.2    75    9.1   230    11.6   819.4    0.00 
 339    0:20   0.00   19.7    75    8.9   224    11.8   819.3    0.00 
 339    0:30   0.00   20.4    73    9.5   225    11.7   819.2    0.00 
 339    0:40   0.00   20.0    73    8.2   229    10.5   819.2    0.00 
 339    0:50   0.00   19.0    74    7.5   220    10.5   819.0    0.00 
 339    1:00   0.00   18.3    76    7.9   226    10.2   819.0    0.00 
 339    1:10   0.00   18.2    77    9.7   230    12.8   818.9    0.00 
 339    1:20   0.00   18.5    76    8.2   223    11.8   818.8    0.00 
 339    1:30   0.00   18.8    75    8.2   224    10.8   818.8    0.00 
 339    1:40   0.00   18.6    75    8.3   229    11.9   818.8    0.00 
 339    1:50   0.00   18.1    75    6.6   224     9.2   818.7    0.00 
 339    2:00   0.00   18.6    74    8.8   234    10.9   818.6    0.00 
 339    2:10   0.00   18.2    75    9.2   232    11.5   818.6    0.00 
 339    2:20   0.00   18.8    74    8.5   224    11.5   818.5    0.00 
 339    2:30   0.00   19.7    73    7.9   219    11.0   818.4    0.00 
 339    2:40   0.00   21.3    70    8.4   212    14.6   818.3    0.00 
 339    2:50   0.00   24.2    61   11.4   234    15.0   818.1    0.00 
 339    3:00   0.00   21.5    67    8.8   228    11.7   818.1    0.00 
 339    3:10   0.00   21.2    70    8.0   236    12.3   818.1    0.00 
 339    3:20   0.00   20.5    71    9.8   234    13.9   818.0    0.00 
 339    3:30   0.00   20.9    70    9.4   235    13.4   818.1    0.00 
 339    3:40   0.00   21.5    69    6.7   252     9.2   818.1    0.00 
 339    3:50   0.00   21.5    68    3.5   203     7.8   818.1    0.00 
 339    4:00   0.00   21.4    68    3.3   187     4.7   817.9    0.00 
 339    4:10   0.00   21.0    68    4.6   194     6.4   817.7    0.00 
 339    4:20   0.00   19.4    71    5.8   202     8.3   817.5    0.00 
 339    4:30   0.00   18.1    75    5.3   212     6.9   817.4    0.00 
 339    4:40   0.00   19.4    75    8.1   216    10.8   817.4    0.00 
 339    4:50   0.00   19.8    73    8.0   218    10.6   817.5    0.00 
 339    5:00   0.00   20.0    72    7.1   227     9.9   817.4    0.00 
 339    5:10   0.00   20.6    71    7.5   230     9.0   817.3    0.00 
 339    5:20   0.00   20.0    72    6.7   219     9.0   817.2    0.00 
 339    5:30   0.00   20.5    72    6.3   206     8.6   817.3    0.00 
 339    5:40   0.00   22.2    69    6.1   204     8.3   817.3    0.00 
 339    5:50   0.00   23.3    66    6.7   223     8.8   817.2    0.00 
 339    6:00   0.00   23.2    66    7.4   229    10.5   817.1    0.00 
 339    6:10   0.00   22.5    67    5.5   207     8.5   817.0    0.00 
 339    6:20   0.00   22.3    67    5.8   206     8.8   817.0    0.00 

Return to Reese River Valley graphs page.


Western Regional Climate Center,wrcc@dri.edu